sensor_id;sensor_type;location;lat;lon;timestamp;pressure;altitude;pressure_sealevel;temperature;humidity
63808;BME280;49961;43.970;22.868;2023-03-13T00:00:40;101954.63;;;3.57;100.00
63808;BME280;49961;43.970;22.868;2023-03-13T00:01:44;101959.34;;;3.56;100.00
63808;BME280;49961;43.970;22.868;2023-03-13T00:02:45;101957.03;;;3.58;100.00
63808;BME280;49961;43.970;22.868;2023-03-13T00:03:46;101949.63;;;3.59;100.00
63808;BME280;49961;43.970;22.868;2023-03-13T00:04:47;101965.25;;;3.58;100.00
63808;BME280;49961;43.970;22.868;2023-03-13T00:05:47;101956.69;;;3.60;100.00
63808;BME280;49961;43.970;22.868;2023-03-13T00:06:48;101949.31;;;3.48;100.00
63808;BME280;49961;43.970;22.868;2023-03-13T00:07:48;101966.84;;;3.59;100.00
63808;BME280;49961;43.970;22.868;2023-03-13T00:08:48;101965.69;;;3.60;100.00
63808;BME280;49961;43.970;22.868;2023-03-13T00:09:49;101952.63;;;3.54;100.00
63808;BME280;49961;43.970;22.868;2023-03-13T00:10:49;101973.13;;;3.60;100.00
63808;BME280;49961;43.970;22.868;2023-03-13T00:11:50;101907.13;;;3.22;100.00
63808;BME280;49961;43.970;22.868;2023-03-13T00:12:50;101961.69;;;3.58;100.00
63808;BME280;49961;43.970;22.868;2023-03-13T00:13:55;101965.25;;;3.58;100.00
63808;BME280;49961;43.970;22.868;2023-03-13T00:14:56;101959.78;;;3.58;100.00
63808;BME280;49961;43.970;22.868;2023-03-13T00:16:10;101828.34;;;2.72;100.00
63808;BME280;49961;43.970;22.868;2023-03-13T00:17:10;101957.84;;;3.59;100.00
63808;BME280;49961;43.970;22.868;2023-03-13T00:18:11;101752.91;;;2.28;100.00
63808;BME280;49961;43.970;22.868;2023-03-13T00:19:11;101957.84;;;3.59;100.00
63808;BME280;49961;43.970;22.868;2023-03-13T00:20:12;101958.63;;;3.59;100.00
63808;BME280;49961;43.970;22.868;2023-03-13T00:21:12;101959.06;;;3.61;100.00
63808;BME280;49961;43.970;22.868;2023-03-13T00:22:13;101957.13;;;3.62;100.00
63808;BME280;49961;43.970;22.868;2023-03-13T00:23:13;101959.06;;;3.61;100.00
63808;BME280;49961;43.970;22.868;2023-03-13T00:24:14;101955.63;;;3.64;100.00
63808;BME280;49961;43.970;22.868;2023-03-13T00:25:14;101960.75;;;3.66;100.00
63808;BME280;49961;43.970;22.868;2023-03-13T00:26:17;101970.56;;;3.67;100.00
63808;BME280;49961;43.970;22.868;2023-03-13T00:27:18;101962.34;;;3.67;100.00
63808;BME280;49961;43.970;22.868;2023-03-13T00:28:18;101975.25;;;3.66;100.00
63808;BME280;49961;43.970;22.868;2023-03-13T00:29:19;101970.56;;;3.67;100.00
63808;BME280;49961;43.970;22.868;2023-03-13T00:30:19;101972.59;;;3.70;100.00
63808;BME280;49961;43.970;22.868;2023-03-13T00:31:25;101968.44;;;3.76;100.00
63808;BME280;49961;43.970;22.868;2023-03-13T00:32:26;101972.00;;;3.76;100.00
63808;BME280;49961;43.970;22.868;2023-03-13T00:33:26;101967.28;;;3.77;100.00
63808;BME280;49961;43.970;22.868;2023-03-13T00:34:26;101969.25;;;3.76;100.00
63808;BME280;49961;43.970;22.868;2023-03-13T00:35:27;101967.22;;;3.73;100.00
63808;BME280;49961;43.970;22.868;2023-03-13T00:36:30;101976.66;;;3.76;100.00
63808;BME280;49961;43.970;22.868;2023-03-13T00:37:31;101975.88;;;3.75;100.00
63808;BME280;49961;43.970;22.868;2023-03-13T00:38:32;101975.00;;;3.71;100.00
63808;BME280;49961;43.970;22.868;2023-03-13T00:39:33;101967.03;;;3.66;100.00
63808;BME280;49961;43.970;22.868;2023-03-13T00:40:33;101976.25;;;3.74;100.00
63808;BME280;49961;43.970;22.868;2023-03-13T00:41:35;101971.44;;;3.71;100.00
63808;BME280;49961;43.970;22.868;2023-03-13T00:42:36;101972.69;;;3.73;100.00
63808;BME280;49961;43.970;22.868;2023-03-13T00:43:37;101918.47;;;3.36;100.00
63808;BME280;49961;43.970;22.868;2023-03-13T00:44:38;101866.47;;;3.08;100.00
63808;BME280;49961;43.970;22.868;2023-03-13T00:45:38;101971.44;;;3.71;100.00
63808;BME280;49961;43.970;22.868;2023-03-13T00:46:39;101970.28;;;3.72;100.00
63808;BME280;49961;43.970;22.868;2023-03-13T00:47:39;101967.91;;;3.70;100.00
63808;BME280;49961;43.970;22.868;2023-03-13T00:48:40;101968.63;;;3.67;100.00
63808;BME280;49961;43.970;22.868;2023-03-13T00:49:40;101958.69;;;3.63;100.00
63808;BME280;49961;43.970;22.868;2023-03-13T00:50:41;101955.97;;;3.63;100.00
63808;BME280;49961;43.970;22.868;2023-03-13T00:51:41;101962.59;;;3.62;100.00
63808;BME280;49961;43.970;22.868;2023-03-13T00:52:42;101953.69;;;3.65;100.00
63808;BME280;49961;43.970;22.868;2023-03-13T00:53:43;101963.91;;;3.68;100.00
63808;BME280;49961;43.970;22.868;2023-03-13T00:54:43;101959.50;;;3.63;100.00
63808;BME280;49961;43.970;22.868;2023-03-13T00:56:01;101958.34;;;3.64;100.00
63808;BME280;49961;43.970;22.868;2023-03-13T00:57:03;101955.19;;;3.62;100.00
63808;BME280;49961;43.970;22.868;2023-03-13T00:58:03;101958.63;;;3.59;100.00
63808;BME280;49961;43.970;22.868;2023-03-13T00:59:03;101955.09;;;3.59;100.00
63808;BME280;49961;43.970;22.868;2023-03-13T01:00:04;101877.09;;;3.10;100.00
63808;BME280;49961;43.970;22.868;2023-03-13T01:02:16;101893.81;;;3.20;100.00
63808;BME280;49961;43.970;22.868;2023-03-13T01:03:17;101957.84;;;3.59;100.00
63808;BME280;49961;43.970;22.868;2023-03-13T01:04:18;101966.41;;;3.57;100.00
63808;BME280;49961;43.970;22.868;2023-03-13T01:05:18;101958.63;;;3.59;100.00
63808;BME280;49961;43.970;22.868;2023-03-13T01:06:21;101962.50;;;3.58;100.00
63808;BME280;49961;43.970;22.868;2023-03-13T01:07:22;101962.16;;;3.60;100.00
63808;BME280;49961;43.970;22.868;2023-03-13T01:08:22;101954.72;;;3.60;100.00
63808;BME280;49961;43.970;22.868;2023-03-13T01:09:23;101954.72;;;3.60;100.00
63808;BME280;49961;43.970;22.868;2023-03-13T01:10:23;101951.53;;;3.58;100.00
63808;BME280;49961;43.970;22.868;2023-03-13T01:11:29;101950.75;;;3.58;100.00
63808;BME280;49961;43.970;22.868;2023-03-13T01:12:30;101947.22;;;3.57;100.00
63808;BME280;49961;43.970;22.868;2023-03-13T01:13:31;101944.81;;;3.56;100.00
63808;BME280;49961;43.970;22.868;2023-03-13T01:14:34;101949.50;;;3.55;100.00
63808;BME280;49961;43.970;22.868;2023-03-13T01:15:34;101945.25;;;3.58;100.00
63808;BME280;49961;43.970;22.868;2023-03-13T01:16:36;101961.34;;;3.59;100.00
63808;BME280;49961;43.970;22.868;2023-03-13T01:17:37;101955.88;;;3.59;100.00
63808;BME280;49961;43.970;22.868;2023-03-13T01:18:39;101957.47;;;3.60;100.00
63808;BME280;49961;43.970;22.868;2023-03-13T01:19:40;101946.75;;;3.55;100.00
63808;BME280;49961;43.970;22.868;2023-03-13T01:20:40;101944.66;;;3.49;100.00
63808;BME280;49961;43.970;22.868;2023-03-13T01:21:43;101952.34;;;3.59;100.00
63808;BME280;49961;43.970;22.868;2023-03-13T01:22:43;101958.97;;;3.58;100.00
63808;BME280;49961;43.970;22.868;2023-03-13T01:23:44;101955.44;;;3.57;100.00
63808;BME280;49961;43.970;22.868;2023-03-13T01:24:45;101948.72;;;3.55;100.00
63808;BME280;49961;43.970;22.868;2023-03-13T01:25:49;101953.94;;;3.60;100.00
63808;BME280;49961;43.970;22.868;2023-03-13T01:26:49;101952.34;;;3.59;100.00
63808;BME280;49961;43.970;22.868;2023-03-13T01:27:50;101951.53;;;3.58;100.00
63808;BME280;49961;43.970;22.868;2023-03-13T01:28:50;101943.66;;;3.57;100.00
63808;BME280;49961;43.970;22.868;2023-03-13T01:29:51;101922.72;;;3.49;100.00
63808;BME280;49961;43.970;22.868;2023-03-13T01:30:52;101948.53;;;3.63;100.00
63808;BME280;49961;43.970;22.868;2023-03-13T01:31:52;101942.63;;;3.61;100.00
63808;BME280;49961;43.970;22.868;2023-03-13T01:32:53;101929.59;;;3.27;100.00
63808;BME280;49961;43.970;22.868;2023-03-13T01:33:56;101945.00;;;3.63;100.00
63808;BME280;49961;43.970;22.868;2023-03-13T01:34:56;101948.13;;;3.61;100.00
63808;BME280;49961;43.970;22.868;2023-03-13T01:36:01;101944.22;;;3.62;100.00
63808;BME280;49961;43.970;22.868;2023-03-13T01:37:02;101945.38;;;3.61;100.00
63808;BME280;49961;43.970;22.868;2023-03-13T01:38:02;101912.38;;;3.42;100.00
63808;BME280;49961;43.970;22.868;2023-03-13T01:39:03;101929.34;;;3.48;100.00
63808;BME280;49961;43.970;22.868;2023-03-13T01:40:04;101879.91;;;3.13;100.00
63808;BME280;49961;43.970;22.868;2023-03-13T01:41:06;101851.28;;;2.95;100.00
63808;BME280;49961;43.970;22.868;2023-03-13T01:42:07;101948.25;;;3.53;100.00
63808;BME280;49961;43.970;22.868;2023-03-13T01:43:24;101947.56;;;3.56;100.00
63808;BME280;49961;43.970;22.868;2023-03-13T01:44:25;101949.50;;;3.55;100.00
63808;BME280;49961;43.970;22.868;2023-03-13T01:45:59;101956.06;;;3.51;100.00
63808;BME280;49961;43.970;22.868;2023-03-13T01:47:00;101956.75;;;3.48;100.00
63808;BME280;49961;43.970;22.868;2023-03-13T01:48:00;101958.25;;;3.45;100.00
63808;BME280;49961;43.970;22.868;2023-03-13T01:49:04;101964.53;;;3.46;100.00
63808;BME280;49961;43.970;22.868;2023-03-13T01:50:07;101966.13;;;3.47;100.00
63808;BME280;49961;43.970;22.868;2023-03-13T01:51:15;101970.81;;;3.46;100.00
63808;BME280;49961;43.970;22.868;2023-03-13T01:52:25;101963.72;;;3.45;100.00
63808;BME280;49961;43.970;22.868;2023-03-13T01:53:30;101969.19;;;3.45;100.00
63808;BME280;49961;43.970;22.868;2023-03-13T01:54:56;101966.84;;;3.44;100.00
63808;BME280;49961;43.970;22.868;2023-03-13T01:55:59;101962.84;;;3.41;100.00
63808;BME280;49961;43.970;22.868;2023-03-13T01:57:04;101965.84;;;3.36;100.00
63808;BME280;49961;43.970;22.868;2023-03-13T01:58:05;101959.91;;;3.34;100.00
63808;BME280;49961;43.970;22.868;2023-03-13T01:59:08;101957.91;;;3.31;100.00
63808;BME280;49961;43.970;22.868;2023-03-13T02:00:15;101962.47;;;3.27;100.00
63808;BME280;49961;43.970;22.868;2023-03-13T02:01:18;101957.69;;;3.24;100.00
63808;BME280;49961;43.970;22.868;2023-03-13T02:02:20;101965.13;;;3.24;100.00
63808;BME280;49961;43.970;22.868;2023-03-13T02:03:21;101959.19;;;3.22;100.00
63808;BME280;49961;43.970;22.868;2023-03-13T02:04:23;101940.09;;;3.10;100.00
63808;BME280;49961;43.970;22.868;2023-03-13T02:05:27;101966.28;;;3.23;100.00
63808;BME280;49961;43.970;22.868;2023-03-13T02:06:30;101970.94;;;3.22;100.00
63808;BME280;49961;43.970;22.868;2023-03-13T02:07:39;101966.28;;;3.23;100.00
63808;BME280;49961;43.970;22.868;2023-03-13T02:08:50;101975.19;;;3.20;100.00
63808;BME280;49961;43.970;22.868;2023-03-13T02:09:54;101974.38;;;3.19;100.00
63808;BME280;49961;43.970;22.868;2023-03-13T02:11:12;101977.13;;;3.19;100.00
63808;BME280;49961;43.970;22.868;2023-03-13T02:12:29;101984.09;;;3.17;100.00
63808;BME280;49961;43.970;22.868;2023-03-13T02:13:31;101989.69;;;3.20;100.00
63808;BME280;49961;43.970;22.868;2023-03-13T02:14:35;101983.06;;;3.21;100.00
63808;BME280;49961;43.970;22.868;2023-03-13T02:15:36;101981.56;;;3.24;100.00
63808;BME280;49961;43.970;22.868;2023-03-13T02:16:37;101991.81;;;3.27;100.00
63808;BME280;49961;43.970;22.868;2023-03-13T02:17:39;101981.66;;;3.27;100.00
63808;BME280;49961;43.970;22.868;2023-03-13T02:18:40;101980.06;;;3.26;100.00
63808;BME280;49961;43.970;22.868;2023-03-13T02:19:47;101929.09;;;2.94;100.00
63808;BME280;49961;43.970;22.868;2023-03-13T02:20:49;101977.59;;;3.21;100.00
63808;BME280;49961;43.970;22.868;2023-03-13T02:24:28;101987.03;;;3.24;100.00
63808;BME280;49961;43.970;22.868;2023-03-13T02:26:35;101984.72;;;3.26;100.00
63808;BME280;49961;43.970;22.868;2023-03-13T02:27:35;101986.69;;;3.25;100.00
63808;BME280;49961;43.970;22.868;2023-03-13T02:28:37;101961.19;;;3.09;100.00
63808;BME280;49961;43.970;22.868;2023-03-13T02:29:39;101949.06;;;2.95;100.00
63808;BME280;49961;43.970;22.868;2023-03-13T02:30:42;102003.13;;;3.25;100.00
63808;BME280;49961;43.970;22.868;2023-03-13T02:31:46;102005.41;;;3.23;100.00
63808;BME280;49961;43.970;22.868;2023-03-13T02:32:47;101937.59;;;2.77;100.00
63808;BME280;49961;43.970;22.868;2023-03-13T02:33:48;101812.03;;;1.93;100.00
63808;BME280;49961;43.970;22.868;2023-03-13T02:34:51;102004.41;;;3.16;100.00
63808;BME280;49961;43.970;22.868;2023-03-13T02:35:54;102012.63;;;3.16;100.00
63808;BME280;49961;43.970;22.868;2023-03-13T02:36:56;102016.53;;;3.15;100.00
63808;BME280;49961;43.970;22.868;2023-03-13T02:38:03;102005.78;;;2.94;100.00
63808;BME280;49961;43.970;22.868;2023-03-13T02:39:05;102025.22;;;3.05;100.00
63808;BME280;49961;43.970;22.868;2023-03-13T02:40:11;101952.41;;;2.49;100.00
63808;BME280;49961;43.970;22.868;2023-03-13T02:41:13;102031.28;;;3.10;100.00
63808;BME280;49961;43.970;22.868;2023-03-13T02:42:16;102030.91;;;3.12;100.00
63808;BME280;49961;43.970;22.868;2023-03-13T02:43:50;102047.81;;;3.14;100.00
63808;BME280;49961;43.970;22.868;2023-03-13T02:44:51;102045.75;;;3.11;100.00
63808;BME280;49961;43.970;22.868;2023-03-13T02:46:15;102042.22;;;3.10;100.00
63808;BME280;49961;43.970;22.868;2023-03-13T02:47:21;102030.41;;;2.94;100.00
63808;BME280;49961;43.970;22.868;2023-03-13T02:48:30;102010.84;;;2.80;100.00
63808;BME280;49961;43.970;22.868;2023-03-13T02:49:31;102055.38;;;3.05;100.00
63808;BME280;49961;43.970;22.868;2023-03-13T02:50:32;102065.50;;;3.04;100.00
63808;BME280;49961;43.970;22.868;2023-03-13T02:51:37;102061.09;;;3.00;100.00
63808;BME280;49961;43.970;22.868;2023-03-13T02:52:47;102063.81;;;3.00;100.00
63808;BME280;49961;43.970;22.868;2023-03-13T02:53:51;102064.53;;;2.97;100.00
63808;BME280;49961;43.970;22.868;2023-03-13T02:55:05;102064.41;;;2.93;100.00
63808;BME280;49961;43.970;22.868;2023-03-13T02:56:06;102086.09;;;2.86;100.00
63808;BME280;49961;43.970;22.868;2023-03-13T02:57:07;102065.00;;;2.75;100.00
63808;BME280;49961;43.970;22.868;2023-03-13T02:58:07;101992.78;;;2.28;100.00
63808;BME280;49961;43.970;22.868;2023-03-13T02:59:08;102067.56;;;2.56;100.00
63808;BME280;49961;43.970;22.868;2023-03-13T03:00:09;102046.13;;;2.34;100.00
63808;BME280;49961;43.970;22.868;2023-03-13T03:01:12;102040.34;;;2.23;100.00
63808;BME280;49961;43.970;22.868;2023-03-13T03:02:12;102100.41;;;2.56;100.00
63808;BME280;49961;43.970;22.868;2023-03-13T03:03:13;102091.94;;;2.49;100.00
63808;BME280;49961;43.970;22.868;2023-03-13T03:04:13;102108.03;;;2.50;100.00
63808;BME280;49961;43.970;22.868;2023-03-13T03:05:13;102107.44;;;2.45;100.00
63808;BME280;49961;43.970;22.868;2023-03-13T03:06:14;102093.66;;;2.29;100.00
63808;BME280;49961;43.970;22.868;2023-03-13T03:07:14;102030.50;;;1.86;100.00
63808;BME280;49961;43.970;22.868;2023-03-13T03:08:15;102114.19;;;2.35;100.00
63808;BME280;49961;43.970;22.868;2023-03-13T03:09:17;102112.94;;;2.33;100.00
63808;BME280;49961;43.970;22.868;2023-03-13T03:10:18;102100.03;;;2.21;100.00
63808;BME280;49961;43.970;22.868;2023-03-13T03:11:18;102115.06;;;2.27;100.00
63808;BME280;49961;43.970;22.868;2023-03-13T03:12:18;102118.63;;;2.28;100.00
63808;BME280;49961;43.970;22.868;2023-03-13T03:13:19;102117.59;;;2.32;100.00
63808;BME280;49961;43.970;22.868;2023-03-13T03:14:19;102127.06;;;2.35;100.00
63808;BME280;49961;43.970;22.868;2023-03-13T03:15:20;102115.78;;;2.36;100.00
63808;BME280;49961;43.970;22.868;2023-03-13T03:16:21;102124.09;;;2.40;100.00
63808;BME280;49961;43.970;22.868;2023-03-13T03:17:22;102120.69;;;2.43;100.00
63808;BME280;49961;43.970;22.868;2023-03-13T03:18:22;102121.72;;;2.38;100.00
63808;BME280;49961;43.970;22.868;2023-03-13T03:19:23;102121.03;;;2.41;100.00
63808;BME280;49961;43.970;22.868;2023-03-13T03:20:23;102124.91;;;2.40;100.00
63808;BME280;49961;43.970;22.868;2023-03-13T03:21:23;102129.00;;;2.46;100.00
63808;BME280;49961;43.970;22.868;2023-03-13T03:22:24;102130.25;;;2.49;100.00
63808;BME280;49961;43.970;22.868;2023-03-13T03:23:24;102075.63;;;2.16;100.00
63808;BME280;49961;43.970;22.868;2023-03-13T03:24:25;102134.59;;;2.50;100.00
63808;BME280;49961;43.970;22.868;2023-03-13T03:25:25;102131.19;;;2.53;100.00
63808;BME280;49961;43.970;22.868;2023-03-13T03:26:26;102128.56;;;2.56;100.00
63808;BME280;49961;43.970;22.868;2023-03-13T03:27:26;102107.94;;;2.47;100.00
63808;BME280;49961;43.970;22.868;2023-03-13T03:28:27;102119.56;;;2.56;100.00
63808;BME280;49961;43.970;22.868;2023-03-13T03:29:28;102139.59;;;2.60;100.00
63808;BME280;49961;43.970;22.868;2023-03-13T03:30:28;102123.19;;;2.60;100.00
63808;BME280;49961;43.970;22.868;2023-03-13T03:31:29;102128.09;;;2.66;100.00
63808;BME280;49961;43.970;22.868;2023-03-13T03:32:30;102135.63;;;2.69;100.00
63808;BME280;49961;43.970;22.868;2023-03-13T03:33:30;102129.00;;;2.70;100.00
63808;BME280;49961;43.970;22.868;2023-03-13T03:34:31;102136.66;;;2.77;100.00
63808;BME280;49961;43.970;22.868;2023-03-13T03:35:32;102131.63;;;2.79;100.00
63808;BME280;49961;43.970;22.868;2023-03-13T03:36:33;102044.44;;;2.29;100.00
63808;BME280;49961;43.970;22.868;2023-03-13T03:37:34;102133.78;;;2.85;100.00
63808;BME280;49961;43.970;22.868;2023-03-13T03:38:35;102140.53;;;2.88;100.00
63808;BME280;49961;43.970;22.868;2023-03-13T03:39:35;102134.47;;;2.82;100.00
63808;BME280;49961;43.970;22.868;2023-03-13T03:40:36;102139.81;;;2.91;100.00
63808;BME280;49961;43.970;22.868;2023-03-13T03:41:36;102142.56;;;2.91;100.00
63808;BME280;49961;43.970;22.868;2023-03-13T03:42:37;102130.13;;;2.93;100.00
63808;BME280;49961;43.970;22.868;2023-03-13T03:43:37;102145.06;;;2.96;100.00
63808;BME280;49961;43.970;22.868;2023-03-13T03:44:38;102149.06;;;2.98;100.00
63808;BME280;49961;43.970;22.868;2023-03-13T03:45:38;102144.16;;;3.04;100.00
63808;BME280;49961;43.970;22.868;2023-03-13T03:46:38;102146.56;;;3.05;100.00
63808;BME280;49961;43.970;22.868;2023-03-13T03:47:39;102142.66;;;3.06;100.00
63808;BME280;49961;43.970;22.868;2023-03-13T03:48:39;102128.41;;;3.01;100.00
63808;BME280;49961;43.970;22.868;2023-03-13T03:49:40;102137.28;;;3.10;100.00
63808;BME280;49961;43.970;22.868;2023-03-13T03:50:41;102137.72;;;3.12;100.00
63808;BME280;49961;43.970;22.868;2023-03-13T03:51:42;102120.09;;;2.97;100.00
63808;BME280;49961;43.970;22.868;2023-03-13T03:52:42;102146.53;;;3.17;100.00
63808;BME280;49961;43.970;22.868;2023-03-13T03:53:43;102149.69;;;3.19;100.00
63808;BME280;49961;43.970;22.868;2023-03-13T03:54:43;102165.78;;;3.21;100.00
63808;BME280;49961;43.970;22.868;2023-03-13T03:55:43;102159.53;;;3.20;100.00
63808;BME280;49961;43.970;22.868;2023-03-13T03:56:44;102156.44;;;3.22;100.00
63808;BME280;49961;43.970;22.868;2023-03-13T03:57:44;102107.78;;;2.91;100.00
63808;BME280;49961;43.970;22.868;2023-03-13T03:58:45;102167.53;;;3.25;100.00
63808;BME280;49961;43.970;22.868;2023-03-13T03:59:45;102165.03;;;3.20;100.00
63808;BME280;49961;43.970;22.868;2023-03-13T04:00:46;102014.31;;;2.17;100.00
63808;BME280;49961;43.970;22.868;2023-03-13T04:01:47;102162.63;;;3.19;100.00
63808;BME280;49961;43.970;22.868;2023-03-13T04:02:47;102164.53;;;3.18;100.00
63808;BME280;49961;43.970;22.868;2023-03-13T04:03:48;102169.25;;;3.18;100.00
63808;BME280;49961;43.970;22.868;2023-03-13T04:04:49;102168.44;;;3.17;100.00
63808;BME280;49961;43.970;22.868;2023-03-13T04:05:49;102149.53;;;3.00;100.00
63808;BME280;49961;43.970;22.868;2023-03-13T04:06:50;102176.06;;;3.12;100.00
63808;BME280;49961;43.970;22.868;2023-03-13T04:07:50;102184.06;;;3.17;100.00
63808;BME280;49961;43.970;22.868;2023-03-13T04:08:51;102183.72;;;3.18;100.00
63808;BME280;49961;43.970;22.868;2023-03-13T04:09:51;102184.53;;;3.19;100.00
63808;BME280;49961;43.970;22.868;2023-03-13T04:10:52;102189.19;;;3.18;100.00
63808;BME280;49961;43.970;22.868;2023-03-13T04:11:52;102186.47;;;3.18;100.00
63808;BME280;49961;43.970;22.868;2023-03-13T04:12:52;102185.22;;;3.16;100.00
63808;BME280;49961;43.970;22.868;2023-03-13T04:13:53;102189.09;;;3.15;100.00
63808;BME280;49961;43.970;22.868;2023-03-13T04:14:53;102192.50;;;3.12;100.00
63808;BME280;49961;43.970;22.868;2023-03-13T04:15:54;102189.34;;;3.10;100.00
63808;BME280;49961;43.970;22.868;2023-03-13T04:16:55;102201.53;;;3.12;100.00
63808;BME280;49961;43.970;22.868;2023-03-13T04:17:55;102191.84;;;3.15;100.00
63808;BME280;49961;43.970;22.868;2023-03-13T04:18:55;102194.56;;;3.15;100.00
63808;BME280;49961;43.970;22.868;2023-03-13T04:19:56;102199.25;;;3.14;100.00
63808;BME280;49961;43.970;22.868;2023-03-13T04:21:04;102193.75;;;3.14;100.00
63808;BME280;49961;43.970;22.868;2023-03-13T04:22:05;102189.78;;;3.12;100.00
63808;BME280;49961;43.970;22.868;2023-03-13T04:23:05;102200.28;;;3.10;100.00
63808;BME280;49961;43.970;22.868;2023-03-13T04:24:06;102198.00;;;3.12;100.00
63808;BME280;49961;43.970;22.868;2023-03-13T04:25:07;102173.50;;;2.91;100.00
63808;BME280;49961;43.970;22.868;2023-03-13T04:26:08;102199.13;;;3.11;100.00
63808;BME280;49961;43.970;22.868;2023-03-13T04:27:08;102207.84;;;3.13;100.00
63808;BME280;49961;43.970;22.868;2023-03-13T04:28:08;102196.50;;;3.14;100.00
63808;BME280;49961;43.970;22.868;2023-03-13T04:29:09;102203.94;;;3.14;100.00
63808;BME280;49961;43.970;22.868;2023-03-13T04:30:10;102203.25;;;3.17;100.00
63808;BME280;49961;43.970;22.868;2023-03-13T04:31:10;102212.25;;;3.17;100.00
63808;BME280;49961;43.970;22.868;2023-03-13T04:32:11;102216.94;;;3.17;100.00
63808;BME280;49961;43.970;22.868;2023-03-13T04:33:11;102215.00;;;3.17;100.00
63808;BME280;49961;43.970;22.868;2023-03-13T04:34:11;102209.53;;;3.17;100.00
63808;BME280;49961;43.970;22.868;2023-03-13T04:35:12;102199.63;;;3.13;100.00
63808;BME280;49961;43.970;22.868;2023-03-13T04:36:12;102198.66;;;3.21;100.00
63808;BME280;49961;43.970;22.868;2023-03-13T04:37:13;102197.53;;;3.22;100.00
63808;BME280;49961;43.970;22.868;2023-03-13T04:38:13;102122.50;;;2.75;100.00
63808;BME280;49961;43.970;22.868;2023-03-13T04:39:14;102192.50;;;3.24;100.00
63808;BME280;49961;43.970;22.868;2023-03-13T04:40:14;102191.38;;;3.25;100.00
63808;BME280;49961;43.970;22.868;2023-03-13T04:41:14;102157.50;;;3.05;100.00
63808;BME280;49961;43.970;22.868;2023-03-13T04:42:15;102038.03;;;2.25;100.00
63808;BME280;49961;43.970;22.868;2023-03-13T04:43:15;102172.31;;;3.16;100.00
63808;BME280;49961;43.970;22.868;2023-03-13T04:44:16;102187.03;;;3.24;100.00
63808;BME280;49961;43.970;22.868;2023-03-13T04:45:16;102182.47;;;3.28;100.00
63808;BME280;49961;43.970;22.868;2023-03-13T04:46:17;102185.66;;;3.30;100.00
63808;BME280;49961;43.970;22.868;2023-03-13T04:47:17;102179.50;;;3.33;100.00
63808;BME280;49961;43.970;22.868;2023-03-13T04:48:18;102172.88;;;3.34;100.00
63808;BME280;49961;43.970;22.868;2023-03-13T04:49:18;102177.44;;;3.30;100.00
63808;BME280;49961;43.970;22.868;2023-03-13T04:50:19;102175.94;;;3.32;100.00
63808;BME280;49961;43.970;22.868;2023-03-13T04:51:19;102167.72;;;3.32;100.00
63808;BME280;49961;43.970;22.868;2023-03-13T04:52:19;102177.44;;;3.30;100.00
63808;BME280;49961;43.970;22.868;2023-03-13T04:53:20;102109.84;;;2.82;100.00
63808;BME280;49961;43.970;22.868;2023-03-13T04:54:21;102187.72;;;3.33;100.00
63808;BME280;49961;43.970;22.868;2023-03-13T04:55:21;102194.22;;;3.40;100.00
63808;BME280;49961;43.970;22.868;2023-03-13T04:56:24;102193.50;;;3.43;100.00
63808;BME280;49961;43.970;22.868;2023-03-13T04:57:24;102197.81;;;3.44;100.00
63808;BME280;49961;43.970;22.868;2023-03-13T04:58:25;102193.50;;;3.43;100.00
63808;BME280;49961;43.970;22.868;2023-03-13T04:59:25;102188.59;;;3.37;100.00
63808;BME280;49961;43.970;22.868;2023-03-13T05:00:26;102176.63;;;3.29;100.00
63808;BME280;49961;43.970;22.868;2023-03-13T05:01:26;102185.19;;;3.40;100.00
63808;BME280;49961;43.970;22.868;2023-03-13T05:02:27;102182.00;;;3.38;100.00
63808;BME280;49961;43.970;22.868;2023-03-13T05:03:27;102193.16;;;3.45;100.00
63808;BME280;49961;43.970;22.868;2023-03-13T05:04:28;102187.78;;;3.48;100.00
63808;BME280;49961;43.970;22.868;2023-03-13T05:05:28;102174.31;;;3.43;100.00
63808;BME280;49961;43.970;22.868;2023-03-13T05:06:28;102199.75;;;3.56;100.00
63808;BME280;49961;43.970;22.868;2023-03-13T05:07:29;102196.19;;;3.55;100.00
63808;BME280;49961;43.970;22.868;2023-03-13T05:08:29;102198.59;;;3.57;100.00
63808;BME280;49961;43.970;22.868;2023-03-13T05:09:30;102194.59;;;3.54;100.00
63808;BME280;49961;43.970;22.868;2023-03-13T05:10:31;102195.06;;;3.56;100.00
63808;BME280;49961;43.970;22.868;2023-03-13T05:11:32;102197.09;;;3.59;100.00
63808;BME280;49961;43.970;22.868;2023-03-13T05:12:32;102193.78;;;3.66;100.00
63808;BME280;49961;43.970;22.868;2023-03-13T05:13:33;102193.44;;;3.67;100.00
63808;BME280;49961;43.970;22.868;2023-03-13T05:14:33;102197.44;;;3.70;100.00
63808;BME280;49961;43.970;22.868;2023-03-13T05:15:34;102196.38;;;3.74;100.00
63808;BME280;49961;43.970;22.868;2023-03-13T05:16:34;102203.19;;;3.80;100.00
63808;BME280;49961;43.970;22.868;2023-03-13T05:17:35;102200.31;;;3.89;100.00
63808;BME280;49961;43.970;22.868;2023-03-13T05:18:35;102203.84;;;3.89;100.00
63808;BME280;49961;43.970;22.868;2023-03-13T05:19:35;102201.91;;;3.90;100.00
63808;BME280;49961;43.970;22.868;2023-03-13T05:20:36;102194.47;;;3.90;100.00
63808;BME280;49961;43.970;22.868;2023-03-13T05:21:36;102189.81;;;3.91;100.00
63808;BME280;49961;43.970;22.868;2023-03-13T05:22:37;102191.81;;;3.94;100.00
63808;BME280;49961;43.970;22.868;2023-03-13T05:23:38;102189.91;;;3.94;100.00
63808;BME280;49961;43.970;22.868;2023-03-13T05:24:38;102193.78;;;3.93;100.00